Summit, Minnesota
Current Conditions -  °F | °C
As of 3:31 AM on Friday 28 Nov 2014 (Local Time) from KVWU Reporting Station
Light Snow Light Snow  
Wind Chill:   Ceiling: 5500
Heat Index:   Visibility: 10mi
Dew Point:   Wind: 0mph
Humidity: 79%   Direction: NA
Pressure: 30.07"   Gusts: NA
Location:  47.7306°N, 94.3762°W
Report Text: KVWU 280931Z AUTO 00000KT 10SM -SN OVC055 M13/M16 A3007 RMK AO2
Loading
Personal Weather Stations






























Interactive Weather Map New forecast layout! Learn more

10-Day Weather Forecast

Advertisements
Track Severe Weather on mobile